sensor_id;sensor_type;location;lat;lon;timestamp;P1;durP1;ratioP1;P2;durP2;ratioP2
10920;SDS011;5513;50.580;8.818;2023-09-07T00:00:55;0.20;;;0.20;;
10920;SDS011;5513;50.580;8.818;2023-09-07T00:03:44;0.10;;;0.10;;
10920;SDS011;5513;50.580;8.818;2023-09-07T00:06:31;0.20;;;0.20;;
10920;SDS011;5513;50.580;8.818;2023-09-07T00:09:21;0.10;;;0.10;;
10920;SDS011;5513;50.580;8.818;2023-09-07T00:12:08;0.20;;;0.20;;
10920;SDS011;5513;50.580;8.818;2023-09-07T00:14:56;0.20;;;0.20;;
10920;SDS011;5513;50.580;8.818;2023-09-07T00:17:44;0.10;;;0.10;;
10920;SDS011;5513;50.580;8.818;2023-09-07T00:20:31;0.17;;;0.17;;
10920;SDS011;5513;50.580;8.818;2023-09-07T00:23:18;0.10;;;0.10;;
10920;SDS011;5513;50.580;8.818;2023-09-07T00:26:07;0.10;;;0.10;;
10920;SDS011;5513;50.580;8.818;2023-09-07T00:28:54;0.20;;;0.20;;
10920;SDS011;5513;50.580;8.818;2023-09-07T00:31:41;0.20;;;0.20;;
10920;SDS011;5513;50.580;8.818;2023-09-07T00:34:28;0.10;;;0.10;;
10920;SDS011;5513;50.580;8.818;2023-09-07T00:37:15;0.10;;;0.10;;
10920;SDS011;5513;50.580;8.818;2023-09-07T00:40:02;0.10;;;0.10;;
10920;SDS011;5513;50.580;8.818;2023-09-07T00:42:55;0.10;;;0.10;;
10920;SDS011;5513;50.580;8.818;2023-09-07T00:45:42;0.10;;;0.10;;
10920;SDS011;5513;50.580;8.818;2023-09-07T00:48:30;0.10;;;0.10;;
10920;SDS011;5513;50.580;8.818;2023-09-07T00:51:18;0.20;;;0.20;;
10920;SDS011;5513;50.580;8.818;2023-09-07T00:54:05;0.10;;;0.10;;
10920;SDS011;5513;50.580;8.818;2023-09-07T00:56:53;0.10;;;0.10;;
10920;SDS011;5513;50.580;8.818;2023-09-07T00:59:42;0.20;;;0.20;;
10920;SDS011;5513;50.580;8.818;2023-09-07T01:02:29;0.20;;;0.20;;
10920;SDS011;5513;50.580;8.818;2023-09-07T01:05:16;0.10;;;0.10;;
10920;SDS011;5513;50.580;8.818;2023-09-07T01:08:09;0.10;;;0.10;;
10920;SDS011;5513;50.580;8.818;2023-09-07T01:10:58;0.10;;;0.10;;
10920;SDS011;5513;50.580;8.818;2023-09-07T01:13:46;0.10;;;0.10;;
10920;SDS011;5513;50.580;8.818;2023-09-07T01:16:34;0.10;;;0.10;;
10920;SDS011;5513;50.580;8.818;2023-09-07T01:19:24;0.20;;;0.20;;
10920;SDS011;5513;50.580;8.818;2023-09-07T01:22:12;0.20;;;0.20;;
10920;SDS011;5513;50.580;8.818;2023-09-07T01:25:00;0.10;;;0.10;;
10920;SDS011;5513;50.580;8.818;2023-09-07T01:27:47;0.10;;;0.10;;
10920;SDS011;5513;50.580;8.818;2023-09-07T01:30:35;0.10;;;0.10;;
10920;SDS011;5513;50.580;8.818;2023-09-07T01:33:23;0.13;;;0.13;;
10920;SDS011;5513;50.580;8.818;2023-09-07T01:36:10;0.10;;;0.10;;
10920;SDS011;5513;50.580;8.818;2023-09-07T01:38:58;0.20;;;0.20;;
10920;SDS011;5513;50.580;8.818;2023-09-07T01:41:45;0.10;;;0.10;;
10920;SDS011;5513;50.580;8.818;2023-09-07T01:44:33;0.10;;;0.10;;
10920;SDS011;5513;50.580;8.818;2023-09-07T01:47:21;0.10;;;0.10;;
10920;SDS011;5513;50.580;8.818;2023-09-07T01:50:08;0.10;;;0.10;;
10920;SDS011;5513;50.580;8.818;2023-09-07T01:52:56;0.10;;;0.10;;
10920;SDS011;5513;50.580;8.818;2023-09-07T01:55:44;0.10;;;0.10;;
10920;SDS011;5513;50.580;8.818;2023-09-07T01:58:33;0.10;;;0.10;;
10920;SDS011;5513;50.580;8.818;2023-09-07T02:01:20;0.10;;;0.10;;
10920;SDS011;5513;50.580;8.818;2023-09-07T02:04:08;0.10;;;0.10;;
10920;SDS011;5513;50.580;8.818;2023-09-07T02:06:55;0.10;;;0.10;;
10920;SDS011;5513;50.580;8.818;2023-09-07T02:09:42;0.10;;;0.10;;
10920;SDS011;5513;50.580;8.818;2023-09-07T02:12:30;0.10;;;0.10;;
10920;SDS011;5513;50.580;8.818;2023-09-07T02:15:17;0.10;;;0.10;;
10920;SDS011;5513;50.580;8.818;2023-09-07T02:18:04;0.20;;;0.20;;
10920;SDS011;5513;50.580;8.818;2023-09-07T02:20:51;0.10;;;0.10;;
10920;SDS011;5513;50.580;8.818;2023-09-07T02:23:38;0.10;;;0.10;;
10920;SDS011;5513;50.580;8.818;2023-09-07T02:26:25;0.10;;;0.10;;
10920;SDS011;5513;50.580;8.818;2023-09-07T02:29:13;0.10;;;0.10;;
10920;SDS011;5513;50.580;8.818;2023-09-07T02:32:00;0.10;;;0.10;;
10920;SDS011;5513;50.580;8.818;2023-09-07T02:34:47;0.10;;;0.10;;
10920;SDS011;5513;50.580;8.818;2023-09-07T02:37:35;0.10;;;0.10;;
10920;SDS011;5513;50.580;8.818;2023-09-07T02:40:23;0.10;;;0.10;;
10920;SDS011;5513;50.580;8.818;2023-09-07T02:43:10;0.10;;;0.10;;
10920;SDS011;5513;50.580;8.818;2023-09-07T02:45:59;0.10;;;0.10;;
10920;SDS011;5513;50.580;8.818;2023-09-07T02:48:46;0.10;;;0.10;;
10920;SDS011;5513;50.580;8.818;2023-09-07T02:51:33;0.10;;;0.10;;
10920;SDS011;5513;50.580;8.818;2023-09-07T02:54:20;0.10;;;0.10;;
10920;SDS011;5513;50.580;8.818;2023-09-07T02:57:07;0.20;;;0.20;;
10920;SDS011;5513;50.580;8.818;2023-09-07T02:59:54;0.10;;;0.10;;
10920;SDS011;5513;50.580;8.818;2023-09-07T03:02:42;0.10;;;0.10;;
10920;SDS011;5513;50.580;8.818;2023-09-07T03:05:29;0.10;;;0.10;;
10920;SDS011;5513;50.580;8.818;2023-09-07T03:08:16;0.10;;;0.10;;
10920;SDS011;5513;50.580;8.818;2023-09-07T03:11:03;0.10;;;0.10;;
10920;SDS011;5513;50.580;8.818;2023-09-07T03:13:51;0.10;;;0.10;;
10920;SDS011;5513;50.580;8.818;2023-09-07T03:16:37;0.10;;;0.10;;
10920;SDS011;5513;50.580;8.818;2023-09-07T03:19:27;0.10;;;0.10;;
10920;SDS011;5513;50.580;8.818;2023-09-07T03:22:14;0.10;;;0.10;;
10920;SDS011;5513;50.580;8.818;2023-09-07T03:25:01;0.10;;;0.10;;
10920;SDS011;5513;50.580;8.818;2023-09-07T03:27:48;0.10;;;0.10;;
10920;SDS011;5513;50.580;8.818;2023-09-07T03:30:35;0.10;;;0.10;;
10920;SDS011;5513;50.580;8.818;2023-09-07T03:33:23;0.10;;;0.10;;
10920;SDS011;5513;50.580;8.818;2023-09-07T03:36:11;0.10;;;0.10;;
10920;SDS011;5513;50.580;8.818;2023-09-07T03:38:59;0.10;;;0.10;;
10920;SDS011;5513;50.580;8.818;2023-09-07T03:41:46;0.10;;;0.10;;
10920;SDS011;5513;50.580;8.818;2023-09-07T03:44:34;0.10;;;0.10;;
10920;SDS011;5513;50.580;8.818;2023-09-07T03:47:20;0.10;;;0.10;;
10920;SDS011;5513;50.580;8.818;2023-09-07T03:50:08;0.10;;;0.10;;
10920;SDS011;5513;50.580;8.818;2023-09-07T03:52:56;0.10;;;0.10;;
10920;SDS011;5513;50.580;8.818;2023-09-07T03:55:44;0.10;;;0.10;;
10920;SDS011;5513;50.580;8.818;2023-09-07T03:58:34;0.10;;;0.10;;
10920;SDS011;5513;50.580;8.818;2023-09-07T04:01:21;0.10;;;0.10;;
10920;SDS011;5513;50.580;8.818;2023-09-07T04:04:09;0.10;;;0.10;;
10920;SDS011;5513;50.580;8.818;2023-09-07T04:06:55;0.10;;;0.10;;
10920;SDS011;5513;50.580;8.818;2023-09-07T04:09:44;0.10;;;0.10;;
10920;SDS011;5513;50.580;8.818;2023-09-07T04:12:31;0.10;;;0.10;;
10920;SDS011;5513;50.580;8.818;2023-09-07T04:15:19;0.10;;;0.10;;
10920;SDS011;5513;50.580;8.818;2023-09-07T04:18:06;0.10;;;0.10;;
10920;SDS011;5513;50.580;8.818;2023-09-07T04:20:52;0.10;;;0.10;;
10920;SDS011;5513;50.580;8.818;2023-09-07T04:23:39;0.10;;;0.10;;
10920;SDS011;5513;50.580;8.818;2023-09-07T04:26:28;0.10;;;0.10;;
10920;SDS011;5513;50.580;8.818;2023-09-07T04:29:15;0.20;;;0.20;;
10920;SDS011;5513;50.580;8.818;2023-09-07T04:32:02;0.10;;;0.10;;
10920;SDS011;5513;50.580;8.818;2023-09-07T04:34:52;0.10;;;0.10;;
10920;SDS011;5513;50.580;8.818;2023-09-07T04:37:41;0.10;;;0.10;;
10920;SDS011;5513;50.580;8.818;2023-09-07T04:40:28;0.10;;;0.10;;
10920;SDS011;5513;50.580;8.818;2023-09-07T04:43:17;0.10;;;0.10;;
10920;SDS011;5513;50.580;8.818;2023-09-07T04:46:04;0.10;;;0.10;;
10920;SDS011;5513;50.580;8.818;2023-09-07T04:48:51;0.10;;;0.10;;
10920;SDS011;5513;50.580;8.818;2023-09-07T04:51:38;0.10;;;0.10;;
10920;SDS011;5513;50.580;8.818;2023-09-07T04:54:25;0.20;;;0.20;;
10920;SDS011;5513;50.580;8.818;2023-09-07T04:57:13;0.10;;;0.10;;
10920;SDS011;5513;50.580;8.818;2023-09-07T05:00:04;0.10;;;0.10;;
10920;SDS011;5513;50.580;8.818;2023-09-07T05:02:53;0.10;;;0.10;;
10920;SDS011;5513;50.580;8.818;2023-09-07T05:05:40;0.10;;;0.10;;
10920;SDS011;5513;50.580;8.818;2023-09-07T05:08:29;0.10;;;0.10;;
10920;SDS011;5513;50.580;8.818;2023-09-07T05:11:16;0.10;;;0.10;;
10920;SDS011;5513;50.580;8.818;2023-09-07T05:14:03;0.10;;;0.10;;
10920;SDS011;5513;50.580;8.818;2023-09-07T05:16:51;0.10;;;0.10;;
10920;SDS011;5513;50.580;8.818;2023-09-07T05:19:38;0.10;;;0.10;;
10920;SDS011;5513;50.580;8.818;2023-09-07T05:22:29;0.10;;;0.10;;
10920;SDS011;5513;50.580;8.818;2023-09-07T05:25:18;0.10;;;0.10;;
10920;SDS011;5513;50.580;8.818;2023-09-07T05:28:05;0.10;;;0.10;;
10920;SDS011;5513;50.580;8.818;2023-09-07T05:30:52;0.10;;;0.10;;
10920;SDS011;5513;50.580;8.818;2023-09-07T05:33:42;0.10;;;0.10;;
10920;SDS011;5513;50.580;8.818;2023-09-07T05:36:29;0.10;;;0.10;;
10920;SDS011;5513;50.580;8.818;2023-09-07T05:39:16;0.10;;;0.10;;
10920;SDS011;5513;50.580;8.818;2023-09-07T05:42:04;0.10;;;0.10;;
10920;SDS011;5513;50.580;8.818;2023-09-07T05:44:51;0.20;;;0.20;;
10920;SDS011;5513;50.580;8.818;2023-09-07T05:47:40;0.10;;;0.10;;
10920;SDS011;5513;50.580;8.818;2023-09-07T05:50:29;0.20;;;0.20;;
10920;SDS011;5513;50.580;8.818;2023-09-07T05:53:16;0.10;;;0.10;;
10920;SDS011;5513;50.580;8.818;2023-09-07T05:56:05;0.10;;;0.10;;
10920;SDS011;5513;50.580;8.818;2023-09-07T05:58:52;0.10;;;0.10;;
10920;SDS011;5513;50.580;8.818;2023-09-07T06:01:39;0.10;;;0.10;;
10920;SDS011;5513;50.580;8.818;2023-09-07T06:04:27;0.20;;;0.20;;
10920;SDS011;5513;50.580;8.818;2023-09-07T06:07:16;0.10;;;0.10;;
10920;SDS011;5513;50.580;8.818;2023-09-07T06:10:03;0.10;;;0.10;;
10920;SDS011;5513;50.580;8.818;2023-09-07T06:12:51;0.10;;;0.10;;
10920;SDS011;5513;50.580;8.818;2023-09-07T06:15:39;0.10;;;0.10;;
10920;SDS011;5513;50.580;8.818;2023-09-07T06:18:26;0.10;;;0.10;;
10920;SDS011;5513;50.580;8.818;2023-09-07T06:21:14;0.10;;;0.10;;
10920;SDS011;5513;50.580;8.818;2023-09-07T06:24:03;0.10;;;0.10;;
10920;SDS011;5513;50.580;8.818;2023-09-07T06:26:51;0.10;;;0.10;;
10920;SDS011;5513;50.580;8.818;2023-09-07T06:29:38;0.10;;;0.10;;
10920;SDS011;5513;50.580;8.818;2023-09-07T06:32:25;0.10;;;0.10;;
10920;SDS011;5513;50.580;8.818;2023-09-07T06:35:12;0.10;;;0.10;;
10920;SDS011;5513;50.580;8.818;2023-09-07T06:37:59;0.10;;;0.10;;
10920;SDS011;5513;50.580;8.818;2023-09-07T06:40:48;0.10;;;0.10;;
10920;SDS011;5513;50.580;8.818;2023-09-07T06:43:38;0.10;;;0.10;;
10920;SDS011;5513;50.580;8.818;2023-09-07T06:46:26;0.10;;;0.10;;
10920;SDS011;5513;50.580;8.818;2023-09-07T06:49:13;0.10;;;0.10;;
10920;SDS011;5513;50.580;8.818;2023-09-07T06:52:00;0.10;;;0.10;;
10920;SDS011;5513;50.580;8.818;2023-09-07T06:54:50;0.10;;;0.10;;
10920;SDS011;5513;50.580;8.818;2023-09-07T06:57:39;0.10;;;0.10;;
10920;SDS011;5513;50.580;8.818;2023-09-07T07:00:26;0.10;;;0.10;;
10920;SDS011;5513;50.580;8.818;2023-09-07T07:03:14;0.10;;;0.10;;
10920;SDS011;5513;50.580;8.818;2023-09-07T07:06:01;0.10;;;0.10;;
10920;SDS011;5513;50.580;8.818;2023-09-07T07:08:48;0.10;;;0.10;;
10920;SDS011;5513;50.580;8.818;2023-09-07T07:11:35;0.10;;;0.10;;
10920;SDS011;5513;50.580;8.818;2023-09-07T07:14:26;0.10;;;0.10;;
10920;SDS011;5513;50.580;8.818;2023-09-07T07:17:13;0.10;;;0.10;;
10920;SDS011;5513;50.580;8.818;2023-09-07T07:20:00;0.10;;;0.10;;
10920;SDS011;5513;50.580;8.818;2023-09-07T07:22:47;0.10;;;0.10;;
10920;SDS011;5513;50.580;8.818;2023-09-07T07:25:36;0.10;;;0.10;;
10920;SDS011;5513;50.580;8.818;2023-09-07T07:28:23;0.10;;;0.10;;
10920;SDS011;5513;50.580;8.818;2023-09-07T07:31:11;0.10;;;0.10;;
10920;SDS011;5513;50.580;8.818;2023-09-07T07:34:02;0.10;;;0.10;;
10920;SDS011;5513;50.580;8.818;2023-09-07T07:36:49;0.10;;;0.10;;
10920;SDS011;5513;50.580;8.818;2023-09-07T07:39:36;0.10;;;0.10;;
10920;SDS011;5513;50.580;8.818;2023-09-07T07:42:23;0.10;;;0.10;;
10920;SDS011;5513;50.580;8.818;2023-09-07T07:45:10;0.10;;;0.10;;
10920;SDS011;5513;50.580;8.818;2023-09-07T07:48:00;0.10;;;0.10;;
10920;SDS011;5513;50.580;8.818;2023-09-07T07:50:47;0.10;;;0.10;;
10920;SDS011;5513;50.580;8.818;2023-09-07T07:53:34;0.10;;;0.10;;
10920;SDS011;5513;50.580;8.818;2023-09-07T07:56:23;0.10;;;0.10;;
10920;SDS011;5513;50.580;8.818;2023-09-07T07:59:12;0.10;;;0.10;;
10920;SDS011;5513;50.580;8.818;2023-09-07T08:01:59;0.10;;;0.10;;
10920;SDS011;5513;50.580;8.818;2023-09-07T08:04:48;0.10;;;0.10;;
10920;SDS011;5513;50.580;8.818;2023-09-07T08:07:34;0.10;;;0.10;;
10920;SDS011;5513;50.580;8.818;2023-09-07T08:10:21;0.10;;;0.10;;
10920;SDS011;5513;50.580;8.818;2023-09-07T08:13:08;0.10;;;0.10;;
10920;SDS011;5513;50.580;8.818;2023-09-07T08:15:55;0.10;;;0.10;;
10920;SDS011;5513;50.580;8.818;2023-09-07T08:18:43;0.10;;;0.10;;
10920;SDS011;5513;50.580;8.818;2023-09-07T08:21:33;0.10;;;0.10;;
10920;SDS011;5513;50.580;8.818;2023-09-07T08:24:21;0.10;;;0.10;;
10920;SDS011;5513;50.580;8.818;2023-09-07T08:27:08;0.10;;;0.10;;
10920;SDS011;5513;50.580;8.818;2023-09-07T08:29:57;0.10;;;0.10;;
10920;SDS011;5513;50.580;8.818;2023-09-07T08:32:44;0.10;;;0.10;;
10920;SDS011;5513;50.580;8.818;2023-09-07T08:35:31;0.00;;;0.00;;
10920;SDS011;5513;50.580;8.818;2023-09-07T08:38:22;0.10;;;0.10;;
10920;SDS011;5513;50.580;8.818;2023-09-07T08:41:13;0.10;;;0.10;;
10920;SDS011;5513;50.580;8.818;2023-09-07T08:44:01;0.10;;;0.10;;
10920;SDS011;5513;50.580;8.818;2023-09-07T08:46:49;0.03;;;0.03;;
10920;SDS011;5513;50.580;8.818;2023-09-07T08:49:36;0.05;;;0.05;;
10920;SDS011;5513;50.580;8.818;2023-09-07T08:52:23;0.00;;;0.00;;
10920;SDS011;5513;50.580;8.818;2023-09-07T08:55:12;0.10;;;0.10;;
10920;SDS011;5513;50.580;8.818;2023-09-07T08:57:59;0.10;;;0.10;;
10920;SDS011;5513;50.580;8.818;2023-09-07T09:00:45;0.00;;;0.00;;
10920;SDS011;5513;50.580;8.818;2023-09-07T09:03:34;0.10;;;0.10;;
10920;SDS011;5513;50.580;8.818;2023-09-07T09:06:21;0.10;;;0.10;;
10920;SDS011;5513;50.580;8.818;2023-09-07T09:09:08;0.00;;;0.00;;
10920;SDS011;5513;50.580;8.818;2023-09-07T09:12:07;0.00;;;0.00;;
10920;SDS011;5513;50.580;8.818;2023-09-07T09:14:54;0.00;;;0.00;;
10920;SDS011;5513;50.580;8.818;2023-09-07T09:17:41;0.10;;;0.10;;
10920;SDS011;5513;50.580;8.818;2023-09-07T09:20:28;0.10;;;0.10;;
10920;SDS011;5513;50.580;8.818;2023-09-07T09:23:15;0.03;;;0.03;;
10920;SDS011;5513;50.580;8.818;2023-09-07T09:26:02;0.10;;;0.10;;
10920;SDS011;5513;50.580;8.818;2023-09-07T09:28:51;0.10;;;0.10;;
10920;SDS011;5513;50.580;8.818;2023-09-07T09:31:38;0.03;;;0.03;;
10920;SDS011;5513;50.580;8.818;2023-09-07T09:34:26;0.00;;;0.00;;
10920;SDS011;5513;50.580;8.818;2023-09-07T09:37:14;0.00;;;0.00;;
10920;SDS011;5513;50.580;8.818;2023-09-07T09:40:01;0.08;;;0.08;;
10920;SDS011;5513;50.580;8.818;2023-09-07T09:42:50;0.10;;;0.10;;
10920;SDS011;5513;50.580;8.818;2023-09-07T09:45:42;0.00;;;0.00;;
10920;SDS011;5513;50.580;8.818;2023-09-07T09:48:28;0.00;;;0.00;;
10920;SDS011;5513;50.580;8.818;2023-09-07T09:51:18;0.08;;;0.08;;
10920;SDS011;5513;50.580;8.818;2023-09-07T09:54:05;0.00;;;0.00;;
10920;SDS011;5513;50.580;8.818;2023-09-07T09:56:52;0.00;;;0.00;;
10920;SDS011;5513;50.580;8.818;2023-09-07T09:59:40;0.00;;;0.00;;
10920;SDS011;5513;50.580;8.818;2023-09-07T10:02:30;0.00;;;0.00;;
10920;SDS011;5513;50.580;8.818;2023-09-07T10:05:17;0.00;;;0.00;;
10920;SDS011;5513;50.580;8.818;2023-09-07T10:08:09;0.00;;;0.00;;
10920;SDS011;5513;50.580;8.818;2023-09-07T10:10:58;0.00;;;0.00;;
10920;SDS011;5513;50.580;8.818;2023-09-07T10:13:45;0.00;;;0.00;;
10920;SDS011;5513;50.580;8.818;2023-09-07T10:16:43;0.00;;;0.00;;
10920;SDS011;5513;50.580;8.818;2023-09-07T10:19:32;0.00;;;0.00;;
10920;SDS011;5513;50.580;8.818;2023-09-07T10:22:21;0.00;;;0.00;;
10920;SDS011;5513;50.580;8.818;2023-09-07T10:25:17;0.00;;;0.00;;
10920;SDS011;5513;50.580;8.818;2023-09-07T10:28:05;0.00;;;0.00;;
10920;SDS011;5513;50.580;8.818;2023-09-07T10:31:01;0.00;;;0.00;;
10920;SDS011;5513;50.580;8.818;2023-09-07T10:33:50;0.00;;;0.00;;
10920;SDS011;5513;50.580;8.818;2023-09-07T10:36:38;0.00;;;0.00;;
10920;SDS011;5513;50.580;8.818;2023-09-07T10:39:28;0.00;;;0.00;;
10920;SDS011;5513;50.580;8.818;2023-09-07T10:42:22;0.00;;;0.00;;
10920;SDS011;5513;50.580;8.818;2023-09-07T10:45:10;0.00;;;0.00;;
10920;SDS011;5513;50.580;8.818;2023-09-07T10:48:01;0.00;;;0.00;;
10920;SDS011;5513;50.580;8.818;2023-09-07T10:50:49;0.00;;;0.00;;
10920;SDS011;5513;50.580;8.818;2023-09-07T10:53:38;0.00;;;0.00;;
10920;SDS011;5513;50.580;8.818;2023-09-07T10:56:26;0.00;;;0.00;;
10920;SDS011;5513;50.580;8.818;2023-09-07T10:59:13;0.00;;;0.00;;
10920;SDS011;5513;50.580;8.818;2023-09-07T11:02:02;0.00;;;0.00;;
10920;SDS011;5513;50.580;8.818;2023-09-07T11:04:51;0.00;;;0.00;;
10920;SDS011;5513;50.580;8.818;2023-09-07T11:07:38;0.00;;;0.00;;
10920;SDS011;5513;50.580;8.818;2023-09-07T11:10:33;0.00;;;0.00;;
10920;SDS011;5513;50.580;8.818;2023-09-07T11:13:21;0.00;;;0.00;;
10920;SDS011;5513;50.580;8.818;2023-09-07T11:16:10;0.00;;;0.00;;
10920;SDS011;5513;50.580;8.818;2023-09-07T11:18:57;0.00;;;0.00;;
10920;SDS011;5513;50.580;8.818;2023-09-07T11:21:45;0.00;;;0.00;;
10920;SDS011;5513;50.580;8.818;2023-09-07T11:24:32;0.00;;;0.00;;
10920;SDS011;5513;50.580;8.818;2023-09-07T11:27:22;0.00;;;0.00;;
10920;SDS011;5513;50.580;8.818;2023-09-07T11:30:11;0.00;;;0.00;;
10920;SDS011;5513;50.580;8.818;2023-09-07T11:33:01;0.00;;;0.00;;
10920;SDS011;5513;50.580;8.818;2023-09-07T11:35:49;0.00;;;0.00;;
10920;SDS011;5513;50.580;8.818;2023-09-07T11:38:36;0.00;;;0.00;;
10920;SDS011;5513;50.580;8.818;2023-09-07T11:41:24;0.00;;;0.00;;
10920;SDS011;5513;50.580;8.818;2023-09-07T11:44:12;0.00;;;0.00;;
10920;SDS011;5513;50.580;8.818;2023-09-07T11:46:59;0.00;;;0.00;;
10920;SDS011;5513;50.580;8.818;2023-09-07T11:49:46;0.00;;;0.00;;
10920;SDS011;5513;50.580;8.818;2023-09-07T11:52:34;0.00;;;0.00;;
10920;SDS011;5513;50.580;8.818;2023-09-07T11:55:20;0.00;;;0.00;;
10920;SDS011;5513;50.580;8.818;2023-09-07T11:58:07;0.00;;;0.00;;
10920;SDS011;5513;50.580;8.818;2023-09-07T12:00:56;0.00;;;0.00;;
10920;SDS011;5513;50.580;8.818;2023-09-07T12:03:42;0.00;;;0.00;;
10920;SDS011;5513;50.580;8.818;2023-09-07T12:06:29;0.00;;;0.00;;
10920;SDS011;5513;50.580;8.818;2023-09-07T12:09:17;0.00;;;0.00;;
10920;SDS011;5513;50.580;8.818;2023-09-07T12:12:04;0.00;;;0.00;;
10920;SDS011;5513;50.580;8.818;2023-09-07T12:14:51;0.00;;;0.00;;
10920;SDS011;5513;50.580;8.818;2023-09-07T12:17:39;0.00;;;0.00;;
10920;SDS011;5513;50.580;8.818;2023-09-07T12:20:27;0.00;;;0.00;;
10920;SDS011;5513;50.580;8.818;2023-09-07T12:23:14;0.00;;;0.00;;
10920;SDS011;5513;50.580;8.818;2023-09-07T12:26:01;0.00;;;0.00;;
10920;SDS011;5513;50.580;8.818;2023-09-07T12:28:49;0.00;;;0.00;;
10920;SDS011;5513;50.580;8.818;2023-09-07T12:31:36;0.00;;;0.00;;
10920;SDS011;5513;50.580;8.818;2023-09-07T12:34:24;0.00;;;0.00;;
10920;SDS011;5513;50.580;8.818;2023-09-07T12:37:14;0.00;;;0.00;;
10920;SDS011;5513;50.580;8.818;2023-09-07T12:40:01;0.00;;;0.00;;
10920;SDS011;5513;50.580;8.818;2023-09-07T12:42:51;0.00;;;0.00;;
10920;SDS011;5513;50.580;8.818;2023-09-07T12:45:38;0.00;;;0.00;;
10920;SDS011;5513;50.580;8.818;2023-09-07T12:48:27;0.00;;;0.00;;
10920;SDS011;5513;50.580;8.818;2023-09-07T12:51:16;0.00;;;0.00;;
10920;SDS011;5513;50.580;8.818;2023-09-07T12:54:03;0.00;;;0.00;;
10920;SDS011;5513;50.580;8.818;2023-09-07T12:56:49;0.00;;;0.00;;
10920;SDS011;5513;50.580;8.818;2023-09-07T12:59:36;0.00;;;0.00;;
10920;SDS011;5513;50.580;8.818;2023-09-07T13:02:23;0.00;;;0.00;;
10920;SDS011;5513;50.580;8.818;2023-09-07T13:05:10;0.00;;;0.00;;
10920;SDS011;5513;50.580;8.818;2023-09-07T13:07:58;0.00;;;0.00;;
10920;SDS011;5513;50.580;8.818;2023-09-07T13:10:47;0.00;;;0.00;;
10920;SDS011;5513;50.580;8.818;2023-09-07T13:13:34;0.00;;;0.00;;
10920;SDS011;5513;50.580;8.818;2023-09-07T13:16:21;0.00;;;0.00;;
10920;SDS011;5513;50.580;8.818;2023-09-07T13:19:08;0.00;;;0.00;;
10920;SDS011;5513;50.580;8.818;2023-09-07T13:21:55;0.00;;;0.00;;
10920;SDS011;5513;50.580;8.818;2023-09-07T13:24:44;0.00;;;0.00;;
10920;SDS011;5513;50.580;8.818;2023-09-07T13:27:30;0.00;;;0.00;;
10920;SDS011;5513;50.580;8.818;2023-09-07T13:30:17;0.00;;;0.00;;
10920;SDS011;5513;50.580;8.818;2023-09-07T13:33:05;0.00;;;0.00;;
10920;SDS011;5513;50.580;8.818;2023-09-07T13:35:53;0.00;;;0.00;;
10920;SDS011;5513;50.580;8.818;2023-09-07T13:38:39;0.00;;;0.00;;
10920;SDS011;5513;50.580;8.818;2023-09-07T13:41:28;0.00;;;0.00;;
10920;SDS011;5513;50.580;8.818;2023-09-07T13:44:15;0.00;;;0.00;;
10920;SDS011;5513;50.580;8.818;2023-09-07T13:47:02;0.00;;;0.00;;
10920;SDS011;5513;50.580;8.818;2023-09-07T13:49:49;0.00;;;0.00;;
10920;SDS011;5513;50.580;8.818;2023-09-07T13:52:36;0.00;;;0.00;;
10920;SDS011;5513;50.580;8.818;2023-09-07T13:55:25;0.00;;;0.00;;
10920;SDS011;5513;50.580;8.818;2023-09-07T13:58:13;0.00;;;0.00;;
10920;SDS011;5513;50.580;8.818;2023-09-07T14:01:00;0.00;;;0.00;;
10920;SDS011;5513;50.580;8.818;2023-09-07T14:03:47;0.00;;;0.00;;
10920;SDS011;5513;50.580;8.818;2023-09-07T14:06:34;0.00;;;0.00;;
10920;SDS011;5513;50.580;8.818;2023-09-07T14:09:21;0.00;;;0.00;;
10920;SDS011;5513;50.580;8.818;2023-09-07T14:12:08;0.00;;;0.00;;
10920;SDS011;5513;50.580;8.818;2023-09-07T14:14:56;0.00;;;0.00;;
10920;SDS011;5513;50.580;8.818;2023-09-07T14:17:43;0.00;;;0.00;;
10920;SDS011;5513;50.580;8.818;2023-09-07T14:20:30;0.00;;;0.00;;
10920;SDS011;5513;50.580;8.818;2023-09-07T14:23:17;0.00;;;0.00;;
10920;SDS011;5513;50.580;8.818;2023-09-07T14:26:05;0.00;;;0.00;;
10920;SDS011;5513;50.580;8.818;2023-09-07T14:28:52;0.00;;;0.00;;
10920;SDS011;5513;50.580;8.818;2023-09-07T14:31:40;0.00;;;0.00;;
10920;SDS011;5513;50.580;8.818;2023-09-07T14:34:28;0.00;;;0.00;;
10920;SDS011;5513;50.580;8.818;2023-09-07T14:37:15;0.00;;;0.00;;
10920;SDS011;5513;50.580;8.818;2023-09-07T14:40:02;0.00;;;0.00;;
10920;SDS011;5513;50.580;8.818;2023-09-07T14:42:50;0.00;;;0.00;;
10920;SDS011;5513;50.580;8.818;2023-09-07T14:45:38;0.00;;;0.00;;
10920;SDS011;5513;50.580;8.818;2023-09-07T14:48:27;0.00;;;0.00;;
10920;SDS011;5513;50.580;8.818;2023-09-07T14:51:14;0.00;;;0.00;;
10920;SDS011;5513;50.580;8.818;2023-09-07T14:54:01;0.00;;;0.00;;
10920;SDS011;5513;50.580;8.818;2023-09-07T14:56:48;0.00;;;0.00;;
10920;SDS011;5513;50.580;8.818;2023-09-07T14:59:35;0.00;;;0.00;;
10920;SDS011;5513;50.580;8.818;2023-09-07T15:02:24;0.00;;;0.00;;
10920;SDS011;5513;50.580;8.818;2023-09-07T15:05:13;0.00;;;0.00;;
10920;SDS011;5513;50.580;8.818;2023-09-07T15:07:59;0.00;;;0.00;;
10920;SDS011;5513;50.580;8.818;2023-09-07T15:10:48;0.00;;;0.00;;
10920;SDS011;5513;50.580;8.818;2023-09-07T15:13:34;0.00;;;0.00;;
10920;SDS011;5513;50.580;8.818;2023-09-07T15:16:21;0.00;;;0.00;;
10920;SDS011;5513;50.580;8.818;2023-09-07T15:19:08;0.00;;;0.00;;
10920;SDS011;5513;50.580;8.818;2023-09-07T15:21:56;0.00;;;0.00;;
10920;SDS011;5513;50.580;8.818;2023-09-07T15:24:43;0.00;;;0.00;;
10920;SDS011;5513;50.580;8.818;2023-09-07T15:27:30;0.00;;;0.00;;
10920;SDS011;5513;50.580;8.818;2023-09-07T15:30:17;0.00;;;0.00;;
10920;SDS011;5513;50.580;8.818;2023-09-07T15:33:04;0.00;;;0.00;;
10920;SDS011;5513;50.580;8.818;2023-09-07T15:35:51;0.00;;;0.00;;
10920;SDS011;5513;50.580;8.818;2023-09-07T15:38:39;0.00;;;0.00;;
10920;SDS011;5513;50.580;8.818;2023-09-07T15:41:26;0.00;;;0.00;;
10920;SDS011;5513;50.580;8.818;2023-09-07T15:44:13;0.00;;;0.00;;
10920;SDS011;5513;50.580;8.818;2023-09-07T15:47:00;0.00;;;0.00;;
10920;SDS011;5513;50.580;8.818;2023-09-07T15:49:47;0.00;;;0.00;;
10920;SDS011;5513;50.580;8.818;2023-09-07T15:52:43;0.00;;;0.00;;
10920;SDS011;5513;50.580;8.818;2023-09-07T15:55:33;0.00;;;0.00;;
10920;SDS011;5513;50.580;8.818;2023-09-07T15:58:20;0.00;;;0.00;;
10920;SDS011;5513;50.580;8.818;2023-09-07T16:01:07;0.00;;;0.00;;
10920;SDS011;5513;50.580;8.818;2023-09-07T16:03:54;0.00;;;0.00;;
10920;SDS011;5513;50.580;8.818;2023-09-07T16:06:41;0.00;;;0.00;;
10920;SDS011;5513;50.580;8.818;2023-09-07T16:09:28;0.10;;;0.10;;
10920;SDS011;5513;50.580;8.818;2023-09-07T16:12:16;0.00;;;0.00;;
10920;SDS011;5513;50.580;8.818;2023-09-07T16:15:03;0.08;;;0.08;;
10920;SDS011;5513;50.580;8.818;2023-09-07T16:17:51;0.10;;;0.10;;
10920;SDS011;5513;50.580;8.818;2023-09-07T16:20:38;0.10;;;0.10;;
10920;SDS011;5513;50.580;8.818;2023-09-07T16:23:25;0.00;;;0.00;;
10920;SDS011;5513;50.580;8.818;2023-09-07T16:26:12;0.00;;;0.00;;
10920;SDS011;5513;50.580;8.818;2023-09-07T16:29:01;0.10;;;0.10;;
10920;SDS011;5513;50.580;8.818;2023-09-07T16:31:48;0.00;;;0.00;;
10920;SDS011;5513;50.580;8.818;2023-09-07T16:34:35;0.00;;;0.00;;
10920;SDS011;5513;50.580;8.818;2023-09-07T16:37:22;0.10;;;0.10;;
10920;SDS011;5513;50.580;8.818;2023-09-07T16:40:11;0.10;;;0.10;;
10920;SDS011;5513;50.580;8.818;2023-09-07T16:42:58;0.00;;;0.00;;
10920;SDS011;5513;50.580;8.818;2023-09-07T16:45:47;0.10;;;0.10;;
10920;SDS011;5513;50.580;8.818;2023-09-07T16:48:42;0.00;;;0.00;;
10920;SDS011;5513;50.580;8.818;2023-09-07T16:51:30;0.00;;;0.00;;
10920;SDS011;5513;50.580;8.818;2023-09-07T16:54:16;0.00;;;0.00;;
10920;SDS011;5513;50.580;8.818;2023-09-07T16:57:03;0.10;;;0.10;;
10920;SDS011;5513;50.580;8.818;2023-09-07T16:59:53;0.00;;;0.00;;
10920;SDS011;5513;50.580;8.818;2023-09-07T17:02:43;0.10;;;0.10;;
10920;SDS011;5513;50.580;8.818;2023-09-07T17:05:30;0.00;;;0.00;;